Time;durP1;ratioP1;P1;durP2;ratioP2;P2;SDS_P1;SDS_P2;PMS_P1;PMS_P2;Temp;Humidity;BMP_temperature;BMP_pressure;BME280_temperature;BME280_humidity;BME280_pressure;Samples;Min_cycle;Max_cycle;Signal;HPM_P1;HPM_P2
2023/04/22 00:02:13;;;;;;;10.53;9.20;;;12.50;60.00;;;;;;5034348;28;20503;-60
2023/04/22 00:04:41;;;;;;;12.67;9.50;;;12.50;60.40;;;;;;5060540;22;20936;-65
2023/04/22 00:07:08;;;;;;;11.03;9.53;;;12.50;60.80;;;;;;5053200;28;20956;-63
2023/04/22 00:09:35;;;;;;;10.43;9.40;;;12.40;61.00;;;;;;5053341;28;20440;-63
2023/04/22 00:12:02;;;;;;;12.20;9.57;;;12.40;61.50;;;;;;5052921;28;20964;-64
2023/04/22 00:14:28;;;;;;;11.40;10.23;;;12.40;61.80;;;;;;5052960;28;20452;-64
2023/04/22 00:16:56;;;;;;;10.13;8.90;;;12.30;62.10;;;;;;5053607;28;20526;-64
2023/04/22 00:19:23;;;;;;;10.97;9.47;;;12.30;62.50;;;;;;5053741;28;20834;-63
2023/04/22 00:21:53;;;;;;;10.97;9.93;;;12.30;62.70;;;;;;5053899;28;20440;-63
2023/04/22 00:24:19;;;;;;;10.50;9.50;;;12.30;63.10;;;;;;5053592;28;20474;-64
2023/04/22 00:26:46;;;;;;;14.40;10.67;;;12.30;63.30;;;;;;5054493;28;20436;-63
2023/04/22 00:29:13;;;;;;;11.43;9.13;;;12.30;63.50;;;;;;5056857;28;20463;-65
2023/04/22 00:31:39;;;;;;;10.00;9.10;;;12.20;64.10;;;;;;5056949;28;20779;-64
2023/04/22 00:34:06;;;;;;;14.20;10.00;;;12.20;64.10;;;;;;5056900;28;20440;-64
2023/04/22 00:36:33;;;;;;;10.83;9.83;;;12.20;64.50;;;;;;5056582;28;20482;-63
2023/04/22 00:39:01;;;;;;;10.97;9.70;;;12.10;64.70;;;;;;5057569;28;20444;-63
2023/04/22 00:41:29;;;;;;;10.67;9.60;;;12.10;65.00;;;;;;5056483;28;20973;-64
2023/04/22 00:43:58;;;;;;;12.07;10.87;;;12.10;65.60;;;;;;5056750;28;20460;-63
2023/04/22 00:46:25;;;;;;;12.60;10.90;;;12.00;66.00;;;;;;5056693;28;20463;-64
2023/04/22 00:48:52;;;;;;;11.03;10.03;;;12.00;66.40;;;;;;5056760;28;20820;-64
2023/04/22 00:51:19;;;;;;;12.33;10.47;;;12.00;67.00;;;;;;5056854;28;20455;-63
2023/04/22 00:53:46;;;;;;;16.37;9.13;;;12.00;67.60;;;;;;5056251;28;20960;-62
2023/04/22 00:56:14;;;;;;;10.30;9.50;;;11.90;67.20;;;;;;5056533;28;20484;-63
2023/04/22 00:58:41;;;;;;;11.60;10.40;;;11.90;67.80;;;;;;5056545;28;20452;-64
2023/04/22 01:01:08;;;;;;;11.10;9.80;;;11.90;68.40;;;;;;5056817;28;20463;-63
2023/04/22 01:03:37;;;;;;;9.87;9.00;;;11.80;68.70;;;;;;5056440;28;20448;-64
2023/04/22 01:06:04;;;;;;;10.97;9.93;;;11.80;69.10;;;;;;5056230;28;20522;-64
2023/04/22 01:08:31;;;;;;;10.30;9.23;;;11.80;69.80;;;;;;5056224;28;20448;-64
2023/04/22 01:10:57;;;;;;;10.90;9.80;;;11.70;70.10;;;;;;5056298;28;20440;-63
2023/04/22 01:13:25;;;;;;;11.57;10.47;;;11.70;70.80;;;;;;5056487;28;20451;-63
2023/04/22 01:15:53;;;;;;;12.70;10.50;;;11.70;71.40;;;;;;5055839;28;20848;-63
2023/04/22 01:18:20;;;;;;;12.50;10.23;;;11.70;72.00;;;;;;5056151;28;20440;-64
2023/04/22 01:20:47;;;;;;;11.60;10.50;;;11.70;72.30;;;;;;5056372;28;20456;-64
2023/04/22 01:23:18;;;;;;;11.57;10.37;;;11.70;72.50;;;;;;5056303;28;20804;-63
2023/04/22 01:25:45;;;;;;;13.73;10.97;;;11.60;73.00;;;;;;5056060;28;20471;-63
2023/04/22 01:28:13;;;;;;;11.90;10.80;;;11.60;73.40;;;;;;5055875;28;20452;-65
2023/04/22 01:30:40;;;;;;;11.57;10.57;;;11.60;73.90;;;;;;5056042;28;20451;-63
2023/04/22 01:33:07;;;;;;;10.80;9.70;;;11.60;74.20;;;;;;5056033;28;20448;-64
2023/04/22 01:35:35;;;;;;;11.83;10.60;;;11.50;74.70;;;;;;5055836;28;20490;-64
2023/04/22 01:38:02;;;;;;;13.90;10.70;;;11.50;75.40;;;;;;5055149;28;20480;-63
2023/04/22 01:40:32;;;;;;;12.47;9.40;;;11.50;76.10;;;;;;5055877;28;20444;-63
2023/04/22 01:42:59;;;;;;;11.60;10.23;;;11.40;76.40;;;;;;5056126;28;20494;-64
2023/04/22 01:45:26;;;;;;;10.17;9.27;;;11.40;76.90;;;;;;5055636;28;20480;-63
2023/04/22 01:47:53;;;;;;;11.30;10.10;;;11.40;77.60;;;;;;5055914;28;20443;-64
2023/04/22 01:50:20;;;;;;;13.63;11.03;;;11.30;78.10;;;;;;5055803;28;20448;-64
2023/04/22 01:52:47;;;;;;;11.37;10.17;;;11.30;78.70;;;;;;5055499;28;20448;-64
2023/04/22 01:55:14;;;;;;;12.37;10.40;;;11.20;79.30;;;;;;5058167;28;20468;-64
2023/04/22 01:57:43;;;;;;;12.00;10.90;;;11.20;80.00;;;;;;5056759;28;20472;-61
2023/04/22 02:00:10;;;;;;;11.83;10.73;;;11.20;80.70;;;;;;5056227;28;20444;-63
2023/04/22 02:02:37;;;;;;;10.60;9.60;;;11.10;81.50;;;;;;5055875;28;20471;-63
2023/04/22 02:05:06;;;;;;;14.50;10.80;;;11.10;82.30;;;;;;5055032;28;20487;-63
2023/04/22 02:07:33;;;;;;;12.40;11.10;;;11.10;83.20;;;;;;5055333;28;20452;-63
2023/04/22 02:10:00;;;;;;;13.10;10.63;;;11.00;83.60;;;;;;5055444;28;20475;-63
2023/04/22 02:12:27;;;;;;;11.40;10.30;;;11.00;84.20;;;;;;5055957;28;20463;-61
2023/04/22 02:14:55;;;;;;;12.03;10.83;;;11.00;84.70;;;;;;5056033;28;20475;-63
2023/04/22 02:17:22;;;;;;;14.23;11.50;;;11.00;85.00;;;;;;5056941;28;20484;-65
2023/04/22 02:19:49;;;;;;;12.60;10.80;;;11.00;85.50;;;;;;5055658;28;20964;-64
2023/04/22 02:22:16;;;;;;;12.57;11.20;;;11.00;85.90;;;;;;5055849;28;20452;-63
2023/04/22 02:24:43;;;;;;;11.50;10.50;;;10.90;86.10;;;;;;5055295;28;21001;-62
2023/04/22 02:27:10;;;;;;;11.50;10.33;;;10.90;86.80;;;;;;5055648;28;20443;-64
2023/04/22 02:29:36;;;;;;;12.37;11.13;;;10.90;87.20;;;;;;5056268;28;20451;-63
2023/04/22 02:32:05;;;;;;;12.40;10.70;;;10.80;87.60;;;;;;5056078;28;20444;-64
2023/04/22 02:34:31;;;;;;;12.10;10.80;;;10.80;88.10;;;;;;5057392;28;20535;-64
2023/04/22 02:36:58;;;;;;;14.00;11.10;;;10.80;88.80;;;;;;5057484;28;20488;-63
2023/04/22 02:39:25;;;;;;;13.93;11.27;;;10.80;89.40;;;;;;5056467;28;20444;-63
2023/04/22 02:41:52;;;;;;;16.07;11.97;;;10.70;90.00;;;;;;5055331;28;20289;-64
2023/04/22 02:44:18;;;;;;;12.60;10.70;;;10.70;90.30;;;;;;5055535;28;20475;-64
2023/04/22 02:46:45;;;;;;;14.63;10.57;;;10.60;90.60;;;;;;5055189;28;20448;-64
2023/04/22 02:49:13;;;;;;;11.90;10.70;;;10.60;90.80;;;;;;5054913;28;20448;-64
2023/04/22 02:51:40;;;;;;;12.70;10.97;;;10.60;91.20;;;;;;5053950;28;20444;-64
2023/04/22 02:54:07;;;;;;;14.53;11.00;;;10.50;91.40;;;;;;5056160;28;20452;-64
2023/04/22 02:56:33;;;;;;;12.50;11.27;;;10.50;91.70;;;;;;5056634;28;20490;-64
2023/04/22 02:59:00;;;;;;;11.97;10.67;;;10.40;92.00;;;;;;5056222;28;20440;-62
2023/04/22 03:01:27;;;;;;;14.20;12.80;;;10.40;92.30;;;;;;5056223;28;20451;-64
2023/04/22 03:03:54;;;;;;;13.40;11.35;;;10.40;92.50;;;;;;5056257;28;20444;-65
2023/04/22 03:06:22;;;;;;;13.70;12.30;;;10.40;92.80;;;;;;5056052;28;20723;-64
2023/04/22 03:08:49;;;;;;;14.52;11.55;;;10.40;93.10;;;;;;5057385;28;20448;-65
2023/04/22 03:11:15;;;;;;;13.88;12.05;;;10.40;93.30;;;;;;5058332;28;20256;-64
2023/04/22 03:13:42;;;;;;;14.75;11.55;;;10.40;93.50;;;;;;5057031;28;20210;-62
2023/04/22 03:16:09;;;;;;;15.43;13.03;;;10.30;93.50;;;;;;5058508;28;20217;-63
2023/04/22 03:18:36;;;;;;;12.27;10.98;;;10.30;93.80;;;;;;5058974;28;20484;-63
2023/04/22 03:21:02;;;;;;;12.50;11.30;;;10.30;93.90;;;;;;5059046;28;20206;-64
2023/04/22 03:23:31;;;;;;;12.47;11.17;;;10.30;94.10;;;;;;5058441;28;20451;-64
2023/04/22 03:25:58;;;;;;;16.05;12.55;;;10.20;94.20;;;;;;5060212;28;20472;-63
2023/04/22 03:28:24;;;;;;;13.95;11.52;;;10.20;94.40;;;;;;5061516;28;20578;-64
2023/04/22 03:30:51;;;;;;;12.60;11.40;;;10.20;94.70;;;;;;5056780;28;20208;-63
2023/04/22 03:33:18;;;;;;;13.95;12.50;;;10.10;95.00;;;;;;5054011;28;20510;-64
2023/04/22 03:35:47;;;;;;;14.27;12.80;;;10.10;95.00;;;;;;5053528;28;20603;-64
2023/04/22 03:38:14;;;;;;;16.98;13.23;;;10.10;95.30;;;;;;5053886;28;20222;-65
2023/04/22 03:40:43;;;;;;;12.98;11.63;;;10.00;95.40;;;;;;5053705;28;20255;-63
2023/04/22 03:43:10;;;;;;;14.10;12.60;;;10.00;95.70;;;;;;5053481;28;20231;-63
2023/04/22 03:45:36;;;;;;;13.88;12.50;;;10.00;95.90;;;;;;5053976;28;20525;-63
2023/04/22 03:48:03;;;;;;;14.73;13.10;;;9.90;96.60;;;;;;5054288;28;20661;-63
2023/04/22 03:50:30;;;;;;;18.08;12.65;;;9.90;96.80;;;;;;5054338;28;20208;-64
2023/04/22 03:52:57;;;;;;;14.80;12.43;;;9.90;97.10;;;;;;5058905;28;20663;-63
2023/04/22 03:55:24;;;;;;;15.50;13.50;;;9.80;97.10;;;;;;5060663;28;20285;-64
2023/04/22 03:57:52;;;;;;;18.23;14.70;;;9.80;97.40;;;;;;5059789;28;20213;-64
2023/04/22 04:00:18;;;;;;;14.23;12.68;;;9.80;97.80;;;;;;5056682;28;20205;-62
2023/04/22 04:02:45;;;;;;;14.75;13.32;;;9.80;97.90;;;;;;5058152;28;20213;-63
2023/04/22 04:05:12;;;;;;;13.68;12.38;;;9.70;98.00;;;;;;5055588;28;20642;-64
2023/04/22 04:07:39;;;;;;;13.45;12.05;;;9.70;98.10;;;;;;5054598;28;20200;-64
2023/04/22 04:11:37;;;;;;;14.37;12.90;;;9.70;98.20;;;;;;5115288;27;20613;-64
2023/04/22 04:14:04;;;;;;;14.25;12.85;;;9.70;98.40;;;;;;5113959;28;20441;-64
2023/04/22 04:16:30;;;;;;;15.93;14.32;;;9.70;98.60;;;;;;5113401;28;20709;-65
2023/04/22 04:18:57;;;;;;;18.90;13.50;;;9.70;98.80;;;;;;5112980;28;20208;-64
2023/04/22 04:21:25;;;;;;;15.23;13.45;;;9.70;99.00;;;;;;5115941;28;20198;-64
2023/04/22 04:23:52;;;;;;;15.25;13.40;;;9.70;99.20;;;;;;5114771;28;20714;-64
2023/04/22 04:26:20;;;;;;;13.82;12.63;;;9.70;99.40;;;;;;5115835;28;20227;-65
2023/04/22 04:28:48;;;;;;;15.90;13.40;;;9.80;99.30;;;;;;5113981;28;20256;-65
2023/04/22 04:31:16;;;;;;;14.45;12.85;;;9.80;99.30;;;;;;5115389;28;20215;-64
2023/04/22 04:33:43;;;;;;;14.60;12.85;;;9.90;99.40;;;;;;5112654;28;20789;-64
2023/04/22 04:36:10;;;;;;;15.88;12.50;;;10.00;99.00;;;;;;5111178;28;20230;-64
2023/04/22 04:38:36;;;;;;;18.58;13.55;;;10.20;99.00;;;;;;5110912;28;20735;-65
2023/04/22 04:41:03;;;;;;;13.67;11.60;;;10.40;98.70;;;;;;5110709;28;20689;-64
2023/04/22 04:43:30;;;;;;;15.70;13.77;;;10.60;98.40;;;;;;5111656;28;20441;-65
2023/04/22 04:45:59;;;;;;;16.90;12.20;;;10.80;98.00;;;;;;5112117;28;21039;-65
2023/04/22 04:48:26;;;;;;;13.17;11.23;;;11.00;97.50;;;;;;5111392;28;20457;-64
2023/04/22 04:50:53;;;;;;;12.47;11.23;;;11.20;96.90;;;;;;5111454;28;20535;-64
2023/04/22 04:53:22;;;;;;;14.80;12.13;;;11.40;96.30;;;;;;5111210;28;20445;-64
2023/04/22 04:55:49;;;;;;;12.77;11.10;;;11.60;95.70;;;;;;5111901;28;20461;-65
2023/04/22 04:58:15;;;;;;;12.67;11.10;;;11.80;94.90;;;;;;5112131;28;20441;-65
2023/04/22 05:00:42;;;;;;;13.00;11.17;;;11.90;94.20;;;;;;5111671;28;20449;-67
2023/04/22 05:03:10;;;;;;;13.20;11.93;;;12.00;93.70;;;;;;5111273;28;20452;-64
2023/04/22 05:05:37;;;;;;;12.23;11.23;;;12.20;93.10;;;;;;5110981;28;20465;-66
2023/04/22 05:08:04;;;;;;;12.03;10.93;;;12.30;92.50;;;;;;5110793;28;20442;-66
2023/04/22 05:10:30;;;;;;;13.97;11.47;;;12.50;91.60;;;;;;5110473;28;21028;-66
2023/04/22 05:12:57;;;;;;;12.77;10.93;;;12.60;91.00;;;;;;5111357;28;20452;-65
2023/04/22 05:15:24;;;;;;;14.53;11.00;;;12.70;90.40;;;;;;5111636;28;20468;-65
2023/04/22 05:17:50;;;;;;;14.20;10.97;;;12.80;89.90;;;;;;5112916;28;20966;-66
2023/04/22 05:20:19;;;;;;;11.10;10.03;;;12.90;89.10;;;;;;5116112;28;20444;-64
2023/04/22 05:22:45;;;;;;;13.00;10.50;;;13.20;87.70;;;;;;5101505;28;20811;-67
2023/04/22 05:25:12;;;;;;;20.93;11.30;;;13.40;85.50;;;;;;5097765;28;20462;-67
2023/04/22 05:27:40;;;;;;;11.77;10.57;;;13.40;83.40;;;;;;5098889;28;20453;-65
2023/04/22 05:30:08;;;;;;;11.23;10.13;;;13.40;81.90;;;;;;5101671;28;20477;-65
2023/04/22 05:32:34;;;;;;;11.37;10.17;;;13.30;81.10;;;;;;5099029;28;20446;-66
2023/04/22 05:35:01;;;;;;;11.73;10.53;;;13.20;80.60;;;;;;5101479;28;20473;-65
2023/04/22 05:37:29;;;;;;;11.87;10.43;;;13.20;80.60;;;;;;5102814;28;20450;-65
2023/04/22 05:39:56;;;;;;;11.47;10.27;;;13.20;80.30;;;;;;5100623;28;20446;-66
2023/04/22 05:42:23;;;;;;;11.20;10.10;;;13.10;79.80;;;;;;5096671;28;20819;-64
2023/04/22 05:44:50;;;;;;;10.80;9.73;;;13.10;79.60;;;;;;5096327;28;20470;-62
2023/04/22 05:47:16;;;;;;;11.53;10.33;;;13.10;79.30;;;;;;5096337;28;20450;-65
2023/04/22 05:49:43;;;;;;;11.17;10.07;;;13.00;79.40;;;;;;5096556;28;20439;-65
2023/04/22 05:52:10;;;;;;;10.63;9.37;;;12.90;79.60;;;;;;5096737;28;20454;-66
2023/04/22 05:54:38;;;;;;;11.47;10.37;;;12.80;79.80;;;;;;5096119;28;20466;-65
2023/04/22 05:57:05;;;;;;;10.87;9.77;;;12.80;80.20;;;;;;5097545;28;20450;-65
2023/04/22 05:59:32;;;;;;;10.00;9.07;;;12.70;80.30;;;;;;5099610;28;20446;-64
2023/04/22 06:01:58;;;;;;;10.80;8.93;;;12.70;80.70;;;;;;5097577;28;20442;-65
2023/04/22 06:04:25;;;;;;;9.90;8.90;;;12.70;80.80;;;;;;5097317;28;20446;-64
2023/04/22 06:06:53;;;;;;;10.37;9.13;;;12.80;80.90;;;;;;5076653;22;20492;-60
2023/04/22 06:09:20;;;;;;;10.23;9.10;;;12.80;80.60;;;;;;5036477;28;20445;-61
2023/04/22 06:11:48;;;;;;;11.47;8.80;;;13.00;80.30;;;;;;5036387;28;20481;-61
2023/04/22 06:14:15;;;;;;;9.67;8.43;;;13.00;79.60;;;;;;5035381;28;20445;-61
2023/04/22 06:16:41;;;;;;;13.23;9.10;;;13.10;79.20;;;;;;5035726;28;20475;-60
2023/04/22 06:19:08;;;;;;;9.53;8.00;;;13.30;78.70;;;;;;5035408;28;20448;-61
2023/04/22 06:21:37;;;;;;;10.73;8.40;;;13.40;78.00;;;;;;5035930;28;20437;-60
2023/04/22 06:24:04;;;;;;;12.40;8.73;;;13.60;77.20;;;;;;5036640;28;20446;-62
2023/04/22 06:26:31;;;;;;;9.50;7.97;;;13.70;76.30;;;;;;5036346;28;20469;-62
2023/04/22 06:29:01;;;;;;;9.00;8.20;;;13.90;75.50;;;;;;5036130;28;20445;-59
2023/04/22 06:31:28;;;;;;;8.23;7.20;;;14.10;74.70;;;;;;5036398;28;20481;-61
2023/04/22 06:33:55;;;;;;;13.50;8.53;;;14.30;73.70;;;;;;5034439;28;20449;-61
2023/04/22 06:36:21;;;;;;;7.90;6.90;;;14.40;72.80;;;;;;5035882;28;20462;-61
2023/04/22 06:38:48;;;;;;;7.60;6.90;;;14.60;72.00;;;;;;5035086;28;20816;-61
2023/04/22 06:41:16;;;;;;;8.50;6.80;;;14.80;71.00;;;;;;5035159;28;20437;-60
2023/04/22 06:43:43;;;;;;;9.80;7.23;;;15.00;70.20;;;;;;5035069;28;20449;-61
2023/04/22 06:46:11;;;;;;;8.40;7.60;;;15.20;70.10;;;;;;5034851;28;20841;-61
2023/04/22 06:48:38;;;;;;;8.70;6.87;;;15.40;68.40;;;;;;5035220;28;20460;-61
2023/04/22 06:51:05;;;;;;;7.57;6.33;;;15.70;67.40;;;;;;5035079;28;20480;-60
2023/04/22 06:53:32;;;;;;;7.37;6.60;;;15.90;66.30;;;;;;5035605;28;20444;-59
2023/04/22 06:55:59;;;;;;;7.07;6.20;;;16.10;65.40;;;;;;5036025;28;20468;-62
2023/04/22 06:58:25;;;;;;;8.10;5.90;;;16.40;64.50;;;;;;5035788;28;20449;-60
2023/04/22 07:00:52;;;;;;;8.47;5.30;;;16.50;63.20;;;;;;5035630;28;20776;-60
2023/04/22 07:03:20;;;;;;;8.63;5.47;;;16.70;62.50;;;;;;5035896;28;20452;-61
2023/04/22 07:05:47;;;;;;;6.57;5.97;;;16.90;61.70;;;;;;5035393;28;20473;-62
2023/04/22 07:08:14;;;;;;;6.70;5.80;;;17.10;61.00;;;;;;5036164;28;20434;-61
2023/04/22 07:10:41;;;;;;;6.53;4.77;;;17.30;60.10;;;;;;5035273;28;20994;-61
2023/04/22 07:13:07;;;;;;;7.90;5.50;;;17.60;59.50;;;;;;5035904;28;20444;-63
2023/04/22 07:15:34;;;;;;;5.87;5.23;;;17.80;58.80;;;;;;5034942;28;20460;-61
2023/04/22 07:18:01;;;;;;;5.60;5.10;;;17.80;58.20;;;;;;5035528;28;20445;-62
2023/04/22 07:20:29;;;;;;;8.43;5.40;;;17.90;57.90;;;;;;5035369;28;20454;-61
2023/04/22 07:22:56;;;;;;;5.57;4.90;;;18.00;57.70;;;;;;5035224;28;20521;-59
2023/04/22 07:25:23;;;;;;;6.33;5.03;;;18.00;57.30;;;;;;5034967;28;20950;-61
2023/04/22 07:27:49;;;;;;;6.57;5.70;;;18.00;57.00;;;;;;5035939;28;20457;-61
2023/04/22 07:30:16;;;;;;;6.13;5.30;;;18.10;56.90;;;;;;5036731;28;20914;-61
2023/04/22 07:32:43;;;;;;;6.77;5.70;;;18.10;56.70;;;;;;5036191;28;20540;-62
2023/04/22 07:35:10;;;;;;;7.40;5.60;;;18.10;56.70;;;;;;5035554;28;20454;-59
2023/04/22 07:37:38;;;;;;;7.80;5.60;;;18.10;56.70;;;;;;5035199;28;20453;-60
2023/04/22 07:40:10;;;;;;;7.30;5.70;;;18.20;56.70;;;;;;5034633;28;20461;-61
2023/04/22 07:42:37;;;;;;;9.53;6.13;;;18.30;56.60;;;;;;5035690;28;20512;-61
2023/04/22 07:45:05;;;;;;;7.50;5.67;;;18.40;56.40;;;;;;5037044;28;20888;-61
2023/04/22 07:47:32;;;;;;;7.07;5.40;;;18.60;56.30;;;;;;5035070;28;20885;-61
2023/04/22 07:49:58;;;;;;;5.80;4.80;;;18.60;56.00;;;;;;5034636;28;20445;-60
2023/04/22 07:52:25;;;;;;;7.20;5.20;;;18.70;56.10;;;;;;5034570;28;20473;-61
2023/04/22 07:54:53;;;;;;;6.33;5.13;;;18.70;56.00;;;;;;5035690;28;20441;-62
2023/04/22 07:57:21;;;;;;;5.00;4.40;;;18.80;56.00;;;;;;5035665;28;20462;-61
2023/04/22 07:59:48;;;;;;;5.07;4.47;;;18.90;55.90;;;;;;5035199;28;20456;-61
2023/04/22 08:02:15;;;;;;;8.07;4.57;;;19.00;55.70;;;;;;5035411;28;20445;-61
2023/04/22 08:04:41;;;;;;;8.03;4.93;;;19.10;55.40;;;;;;5035397;28;20455;-59
2023/04/22 08:07:08;;;;;;;6.40;5.30;;;19.30;55.20;;;;;;5034344;28;20488;-61
2023/04/22 08:09:35;;;;;;;5.10;4.50;;;19.50;54.90;;;;;;5034808;28;20456;-62
2023/04/22 08:12:03;;;;;;;4.73;4.00;;;19.60;54.60;;;;;;5034276;28;20994;-61
2023/04/22 08:14:30;;;;;;;4.37;3.97;;;19.80;54.30;;;;;;5034921;28;20440;-60
2023/04/22 08:16:57;;;;;;;7.03;3.80;;;19.90;53.70;;;;;;5035694;28;20461;-60
2023/04/22 08:19:23;;;;;;;5.37;3.73;;;20.00;53.20;;;;;;5037113;28;20459;-61
2023/04/22 08:21:50;;;;;;;5.40;4.07;;;20.20;52.90;;;;;;5041160;28;20919;-62
2023/04/22 08:24:17;;;;;;;5.00;3.80;;;20.30;52.50;;;;;;5040347;28;20821;-61
2023/04/22 08:26:44;;;;;;;5.80;4.00;;;20.30;52.20;;;;;;5040346;28;20461;-60
2023/04/22 08:29:13;;;;;;;4.53;3.60;;;20.30;52.10;;;;;;5040635;28;20888;-61
2023/04/22 08:31:40;;;;;;;6.23;3.63;;;20.30;52.00;;;;;;5037102;28;20825;-62
2023/04/22 08:34:06;;;;;;;6.43;4.00;;;20.30;51.80;;;;;;5035237;28;20450;-61
2023/04/22 08:36:33;;;;;;;3.83;3.40;;;20.40;51.60;;;;;;5035205;28;20462;-66
2023/04/22 08:39:00;;;;;;;4.10;3.63;;;20.50;51.40;;;;;;5036129;28;20454;-61
2023/04/22 08:41:27;;;;;;;5.80;3.80;;;20.50;51.20;;;;;;5035717;28;20451;-62
2023/04/22 08:43:54;;;;;;;7.00;3.50;;;20.60;50.90;;;;;;5034904;28;20944;-60
2023/04/22 08:46:24;;;;;;;6.03;3.90;;;20.70;50.50;;;;;;5033780;28;21014;-60
2023/04/22 08:48:53;;;;;;;4.23;3.43;;;20.80;50.20;;;;;;5034145;28;20457;-62
2023/04/22 08:51:21;;;;;;;4.30;3.90;;;21.00;49.90;;;;;;5032912;28;20474;-61
2023/04/22 08:53:47;;;;;;;4.90;3.90;;;21.10;49.40;;;;;;5034007;28;20446;-61
2023/04/22 08:56:14;;;;;;;7.13;3.67;;;21.20;49.70;;;;;;5034074;28;20471;-62
2023/04/22 08:58:42;;;;;;;3.80;3.40;;;21.20;49.00;;;;;;5037281;28;20438;-61
2023/04/22 09:01:09;;;;;;;5.00;4.10;;;21.40;48.90;;;;;;5037976;28;20449;-60
2023/04/22 09:03:40;;;;;;;3.80;3.43;;;21.50;48.60;;;;;;5037695;28;20446;-62
2023/04/22 09:06:10;;;;;;;4.10;3.70;;;21.60;48.30;;;;;;5038730;28;20486;-61
2023/04/22 09:08:38;;;;;;;5.67;4.00;;;21.70;48.20;;;;;;5037895;28;20458;-61
2023/04/22 09:11:05;;;;;;;6.20;4.40;;;21.70;48.10;;;;;;5037682;28;20991;-60
2023/04/22 09:13:33;;;;;;;7.60;3.93;;;21.80;48.00;;;;;;5037122;28;20942;-62
2023/04/22 09:16:00;;;;;;;4.43;3.90;;;21.90;47.90;;;;;;5037343;28;20514;-62
2023/04/22 09:18:26;;;;;;;7.50;3.47;;;22.10;47.70;;;;;;5037200;28;20444;-61
2023/04/22 09:20:56;;;;;;;4.00;3.10;;;22.20;47.40;;;;;;5037843;28;20464;-63
2023/04/22 09:23:23;;;;;;;4.63;4.03;;;22.20;46.90;;;;;;5038578;28;20454;-61
2023/04/22 09:25:50;;;;;;;5.50;3.47;;;22.30;47.10;;;;;;5039582;28;20475;-62
2023/04/22 09:28:18;;;;;;;3.50;3.20;;;22.40;46.90;;;;;;5039857;28;20451;-63
2023/04/22 09:30:46;;;;;;;6.87;3.83;;;22.70;46.60;;;;;;5039241;28;20448;-60
2023/04/22 09:33:14;;;;;;;6.10;3.10;;;22.90;46.10;;;;;;5040697;28;20516;-61
2023/04/22 09:35:42;;;;;;;4.33;3.00;;;23.10;45.50;;;;;;5041188;28;20462;-60
2023/04/22 09:38:11;;;;;;;2.83;2.63;;;23.30;45.30;;;;;;5039358;28;20437;-62
2023/04/22 09:40:41;;;;;;;5.27;3.67;;;23.50;45.00;;;;;;5038505;28;20438;-62
2023/04/22 09:43:09;;;;;;;4.93;3.60;;;23.70;44.60;;;;;;5037960;28;20436;-61
2023/04/22 09:45:37;;;;;;;4.67;3.57;;;24.00;44.30;;;;;;5037219;28;20558;-61
2023/04/22 09:48:08;;;;;;;3.20;2.90;;;24.20;43.80;;;;;;5037984;28;20453;-62
2023/04/22 09:50:35;;;;;;;3.90;3.60;;;24.30;43.30;;;;;;5038783;28;20431;-64
2023/04/22 09:53:04;;;;;;;3.87;3.07;;;24.30;43.50;;;;;;5036812;28;20843;-63
2023/04/22 09:55:34;;;;;;;3.60;3.30;;;24.20;43.50;;;;;;5037521;28;20528;-60
2023/04/22 09:58:06;;;;;;;5.10;3.97;;;24.20;43.50;;;;;;5037640;28;20893;-62
2023/04/22 10:00:36;;;;;;;4.67;4.17;;;24.00;43.60;;;;;;5037360;28;20436;-63
2023/04/22 10:03:03;;;;;;;4.40;4.00;;;23.90;43.70;;;;;;5038428;28;20889;-62
2023/04/22 10:05:30;;;;;;;4.40;3.40;;;23.90;43.80;;;;;;5039289;28;20474;-62
2023/04/22 10:07:57;;;;;;;4.50;3.20;;;23.80;44.00;;;;;;5038332;28;20975;-60
2023/04/22 10:10:24;;;;;;;3.40;3.10;;;23.80;44.10;;;;;;5037950;28;20454;-62
2023/04/22 10:12:53;;;;;;;4.03;3.10;;;23.90;44.00;;;;;;5036928;28;20489;-61
2023/04/22 10:15:20;;;;;;;3.67;3.37;;;24.00;43.90;;;;;;5036582;28;20448;-62
2023/04/22 10:17:47;;;;;;;4.00;2.90;;;24.00;43.70;;;;;;5034845;28;20434;-61
2023/04/22 10:20:18;;;;;;;4.37;3.80;;;24.10;43.50;;;;;;5036177;28;20828;-62
2023/04/22 10:22:45;;;;;;;7.10;3.63;;;24.20;43.30;;;;;;5036209;28;20424;-62
2023/04/22 10:25:13;;;;;;;4.47;3.50;;;24.30;43.20;;;;;;5035196;28;21022;-60
2023/04/22 10:27:40;;;;;;;4.38;2.70;;;24.40;43.00;;;;;;5034654;28;20415;-63
2023/04/22 10:30:11;;;;;;;3.58;3.05;;;24.50;42.50;;;;;;5035518;28;20419;-62
2023/04/22 10:32:38;;;;;;;3.80;3.50;;;24.70;42.50;;;;;;5035747;28;20276;-60
2023/04/22 10:35:10;;;;;;;5.27;3.30;;;24.70;41.70;;;;;;5036251;28;20441;-61
2023/04/22 10:37:38;;;;;;;3.90;3.47;;;24.70;41.70;;;;;;5035834;28;20445;-60
2023/04/22 10:40:07;;;;;;;3.67;2.70;;;24.80;41.70;;;;;;5036148;28;20889;-61
2023/04/22 10:42:35;;;;;;;4.03;3.63;;;24.90;41.60;;;;;;5035832;28;20490;-61
2023/04/22 10:45:03;;;;;;;4.40;2.90;;;24.90;41.50;;;;;;5035997;28;20448;-62
2023/04/22 10:47:33;;;;;;;8.90;4.30;;;25.00;41.50;;;;;;5037029;28;20440;-62
2023/04/22 10:50:24;;;;;;;4.77;3.20;;;25.10;41.40;;;;;;5036501;28;20452;-62
2023/04/22 10:52:55;;;;;;;3.03;2.73;;;25.00;41.20;;;;;;5033269;28;20513;-61
2023/04/22 10:55:22;;;;;;;4.40;3.10;;;25.10;41.00;;;;;;5035143;28;20445;-62
2023/04/22 10:57:50;;;;;;;2.80;2.60;;;25.20;40.80;;;;;;5035543;28;20450;-63
2023/04/22 11:00:29;;;;;;;3.37;2.73;;;25.30;40.60;;;;;;5035324;28;20807;-61
2023/04/22 11:03:10;;;;;;;3.43;2.50;;;25.30;41.00;;;;;;5035341;28;20429;-61
2023/04/22 11:05:38;;;;;;;3.20;2.70;;;25.40;40.20;;;;;;5035176;28;20482;-62
2023/04/22 11:08:08;;;;;;;4.10;2.80;;;25.40;40.20;;;;;;5036210;28;20438;-61
2023/04/22 11:10:39;;;;;;;5.23;3.50;;;25.40;40.10;;;;;;5034509;28;20450;-58
2023/04/22 11:13:07;;;;;;;6.27;4.90;;;25.40;40.00;;;;;;5036585;28;21061;-61
2023/04/22 11:15:36;;;;;;;9.37;7.40;;;25.30;40.40;;;;;;5035341;28;20470;-61
2023/04/22 11:18:03;;;;;;;12.13;10.83;;;25.30;39.80;;;;;;5034531;28;20434;-62
2023/04/22 11:20:31;;;;;;;15.97;13.10;;;25.30;39.70;;;;;;5034475;28;20445;-61
2023/04/22 11:22:58;;;;;;;8.03;7.07;;;25.40;39.50;;;;;;5035344;28;20441;-61
2023/04/22 11:25:26;;;;;;;5.55;4.50;;;25.50;39.30;;;;;;5033689;28;20469;-62
2023/04/22 11:27:54;;;;;;;2.80;2.30;;;25.60;38.90;;;;;;5034959;28;20351;-61
2023/04/22 11:30:22;;;;;;;3.20;2.90;;;25.60;38.90;;;;;;5035767;28;20446;-62
2023/04/22 11:32:50;;;;;;;4.23;2.77;;;25.70;39.00;;;;;;5035710;28;21027;-60
2023/04/22 11:35:19;;;;;;;3.72;2.58;;;25.80;38.80;;;;;;5033641;28;20995;-59
2023/04/22 11:37:49;;;;;;;2.87;2.67;;;25.80;38.50;;;;;;5035101;28;20682;-61
2023/04/22 11:40:18;;;;;;;3.37;3.07;;;25.90;38.60;;;;;;5034836;28;20447;-60
2023/04/22 11:42:44;;;;;;;4.00;2.80;;;26.00;38.40;;;;;;5033033;28;20411;-61
2023/04/22 11:45:12;;;;;;;3.10;2.72;;;26.10;38.10;;;;;;5033361;28;20427;-62
2023/04/22 11:47:39;;;;;;;3.00;2.70;;;26.40;37.70;;;;;;5033243;28;20778;-61
2023/04/22 11:50:10;;;;;;;3.10;2.50;;;26.70;37.40;;;;;;5032954;28;20446;-61
2023/04/22 11:52:50;;;;;;;3.17;2.50;;;27.30;37.20;;;;;;5032885;28;20975;-61
2023/04/22 11:55:21;;;;;;;4.60;2.58;;;27.80;36.60;;;;;;5033139;28;20419;-61
2023/04/22 11:57:53;;;;;;;3.30;2.80;;;28.20;35.90;;;;;;5033138;28;20411;-61
2023/04/22 12:00:20;;;;;;;3.35;2.60;;;28.40;35.50;;;;;;5033724;28;20450;-61
2023/04/22 12:02:56;;;;;;;3.40;2.80;;;28.50;35.30;;;;;;5033342;28;20418;-60
2023/04/22 12:05:32;;;;;;;3.80;2.67;;;28.60;35.40;;;;;;5032483;28;20477;-61
2023/04/22 12:08:02;;;;;;;3.50;2.83;;;28.80;35.00;;;;;;5055997;22;20442;-67
2023/04/22 12:10:32;;;;;;;3.00;2.33;;;28.80;34.20;;;;;;5032891;28;20839;-69
2023/04/22 12:13:00;;;;;;;2.57;2.37;;;28.70;33.70;;;;;;5033644;28;20263;-67
2023/04/22 12:15:27;;;;;;;5.17;3.10;;;28.50;34.10;;;;;;5035257;28;20454;-68
2023/04/22 12:17:54;;;;;;;3.67;2.83;;;28.40;34.40;;;;;;5035409;28;20475;-68
2023/04/22 12:20:21;;;;;;;3.13;2.60;;;28.30;34.60;;;;;;5037720;28;20824;-68
2023/04/22 12:22:52;;;;;;;2.87;2.67;;;28.10;35.00;;;;;;5035924;28;20463;-67
2023/04/22 12:25:20;;;;;;;5.37;3.00;;;27.70;35.40;;;;;;5033825;28;20441;-68
2023/04/22 12:27:47;;;;;;;3.50;3.17;;;27.30;35.70;;;;;;5033455;28;20994;-66
2023/04/22 12:30:15;;;;;;;4.40;2.80;;;27.00;36.30;;;;;;5033327;28;20452;-67
2023/04/22 12:32:42;;;;;;;3.00;2.70;;;27.00;36.70;;;;;;5035459;28;21013;-68
2023/04/22 12:35:08;;;;;;;4.60;2.93;;;27.00;36.90;;;;;;5037369;28;20459;-66
2023/04/22 12:37:35;;;;;;;4.20;3.30;;;27.00;37.00;;;;;;5037423;28;20464;-67
2023/04/22 12:40:05;;;;;;;6.17;2.77;;;27.00;37.10;;;;;;5037720;28;20440;-68
2023/04/22 12:42:33;;;;;;;3.33;2.80;;;27.00;37.10;;;;;;5039117;28;20452;-68